Aerial Acres, California
Current Conditions -  °F | °C
As of 1:58 AM on Saturday 01 Nov 2014 (Local Time) from KEDW Reporting Station
Light Rain Light Rain  
Wind Chill: 51°   Ceiling: 4600
Heat Index: 51°   Visibility: 9mi
Dew Point: 48°   Wind: 10mph
Humidity: 90%   Direction: 240°WSW
Pressure: 29.8"   Gusts: NA
Location:  34.931°N, 117.867°W
Report Text: KEDW 010858Z AUTO 24009KT 9SM -RA FEW030 OVC046 10/09 A2980 RMK AO2 PK WND 25031/0758 SLP080 P0008 60009 T01040089 53016
Loading
Personal Weather Stations






























Interactive Weather Map
Tropical Storm Tracking
New forecast layout! Learn more

10-Day Weather Forecast

Advertisements
Track Severe Weather on mobile